createdAt,value
2017-11-28T17:03:31.010Z,30.30
2017-11-28T17:04:04.169Z,30.60
2017-11-28T17:04:36.977Z,31.60
2017-11-28T17:05:09.808Z,33.00
2017-11-28T17:05:43.307Z,34.60
2017-11-28T17:06:15.953Z,36.20
2017-11-28T17:06:48.601Z,37.80
2017-11-28T17:07:22.012Z,41.40
2017-11-28T17:07:54.834Z,41.40
2017-11-28T17:08:27.650Z,43.20
2017-11-28T17:09:00.432Z,45.10
2017-11-28T17:09:33.046Z,46.70
2017-11-28T17:10:06.202Z,48.40
2017-11-28T17:10:39.693Z,50.00
2017-11-28T17:11:12.973Z,51.40
2017-11-28T17:11:46.484Z,52.90
2017-11-28T17:12:20.064Z,55.30
2017-11-28T17:12:53.979Z,57.50
2017-11-28T17:13:27.442Z,57.50
2017-11-28T17:14:01.019Z,59.50
2017-11-28T17:14:34.341Z,59.50
2017-11-28T17:15:07.244Z,60.30
2017-11-28T17:15:40.613Z,61.70
2017-11-28T17:16:14.272Z,63.40
2017-11-28T17:16:47.153Z,63.40
2017-11-28T17:17:21.194Z,64.60
2017-11-28T17:17:55.068Z,65.00
2017-11-28T17:18:28.718Z,66.30
2017-11-28T17:19:01.943Z,65.50
2017-11-28T17:19:35.167Z,66.00
2017-11-28T17:20:08.258Z,66.50
2017-11-28T17:20:41.705Z,67.10
2017-11-28T17:21:14.601Z,67.30
2017-11-28T17:21:47.656Z,67.90
2017-11-28T17:22:21.100Z,68.20
2017-11-28T17:22:55.266Z,68.90
2017-11-28T17:23:28.837Z,68.90
2017-11-28T17:24:01.917Z,68.90
2017-11-28T17:24:35.332Z,69.40
2017-11-28T17:25:09.321Z,69.80
2017-11-28T17:25:42.253Z,69.80
2017-11-28T17:26:15.321Z,69.80
2017-11-28T17:26:48.732Z,70.10
2017-11-28T17:27:22.058Z,69.70
2017-11-28T17:27:56.610Z,70.20
2017-11-28T17:28:29.659Z,70.30
2017-11-28T17:29:02.531Z,70.30
2017-11-28T17:29:35.680Z,70.20
2017-11-28T17:30:08.751Z,70.60
2017-11-28T17:30:42.952Z,70.50
2017-11-28T17:31:16.489Z,70.40
2017-11-28T17:31:49.550Z,70.40
2017-11-28T17:32:22.632Z,70.60
2017-11-28T17:32:55.528Z,71.10
2017-11-28T17:33:28.694Z,71.10
2017-11-28T17:34:01.758Z,71.00
2017-11-28T17:34:35.519Z,71.00
2017-11-28T17:35:09.437Z,71.20
2017-11-28T17:35:42.536Z,71.20
2017-11-28T17:36:15.618Z,71.10
2017-11-28T17:36:49.044Z,71.10
2017-11-28T17:37:22.292Z,71.10
2017-11-28T17:37:56.493Z,71.20
2017-11-28T17:38:29.610Z,71.20
2017-11-28T17:39:02.513Z,71.10
2017-11-28T17:39:35.601Z,70.90
2017-11-28T17:40:09.003Z,71.20
2017-11-28T17:40:42.444Z,71.10
2017-11-28T17:41:16.186Z,71.30
2017-11-28T17:41:49.254Z,71.40
2017-11-28T17:42:22.893Z,71.50
2017-11-28T17:42:55.971Z,71.30
2017-11-28T17:43:29.704Z,71.50
2017-11-28T17:44:02.816Z,71.60
2017-11-28T17:44:36.973Z,71.50
2017-11-28T17:45:10.034Z,71.40
2017-11-28T17:45:43.468Z,71.30
2017-11-28T17:46:17.670Z,71.50
2017-11-28T17:46:51.676Z,70.90
2017-11-28T17:47:25.577Z,71.40
2017-11-28T17:48:00.068Z,71.50
2017-11-28T17:48:33.162Z,71.50
2017-11-28T17:49:06.982Z,71.60
2017-11-28T17:49:40.234Z,71.40
2017-11-28T17:50:14.085Z,71.30
2017-11-28T17:50:47.222Z,71.40
2017-11-28T17:51:21.105Z,71.60
2017-11-28T17:51:54.172Z,71.40
2017-11-28T17:52:28.173Z,71.20
2017-11-28T17:53:01.384Z,71.20
2017-11-28T17:53:34.448Z,71.40
2017-11-28T17:54:08.184Z,71.30
2017-11-28T17:54:43.139Z,71.20
2017-11-28T17:55:16.542Z,71.20
2017-11-28T17:55:49.750Z,71.30
2017-11-28T17:56:23.492Z,71.20
2017-11-28T17:56:57.788Z,71.40
2017-11-28T17:57:32.241Z,71.40
2017-11-28T17:58:05.705Z,71.40
2017-11-28T17:58:39.106Z,71.40
2017-11-28T17:59:12.531Z,71.50
2017-11-28T17:59:46.549Z,71.50
2017-11-28T18:00:20.384Z,71.50
2017-11-28T18:00:53.325Z,71.50
2017-11-28T18:01:26.540Z,71.30
2017-11-28T18:01:59.960Z,71.10
2017-11-28T18:02:33.026Z,71.30
2017-11-28T18:03:05.912Z,71.30
2017-11-28T18:03:38.976Z,71.30
2017-11-28T18:04:12.821Z,71.70
2017-11-28T18:04:45.907Z,71.70
2017-11-28T18:05:18.983Z,71.70
2017-11-28T18:05:52.434Z,71.40
2017-11-28T18:06:25.786Z,71.20
2017-11-28T18:06:59.207Z,71.00
2017-11-28T18:07:32.613Z,71.20
2017-11-28T18:08:05.690Z,71.20
2017-11-28T18:08:38.574Z,70.90
2017-11-28T18:09:11.503Z,71.00
2017-11-28T18:09:44.663Z,70.90
2017-11-28T18:10:17.726Z,70.80
2017-11-28T18:10:50.922Z,71.30
2017-11-28T18:11:24.960Z,70.70
2017-11-28T18:11:58.424Z,70.70
2017-11-28T18:12:31.495Z,71.20
2017-11-28T18:13:04.575Z,70.90
2017-11-28T18:13:37.740Z,71.00
2017-11-28T18:14:10.626Z,70.70
2017-11-28T18:14:43.687Z,70.80
2017-11-28T18:15:17.128Z,70.50
2017-11-28T18:15:50.903Z,70.60
2017-11-28T18:16:24.300Z,70.70
2017-11-28T18:16:57.562Z,70.70
2017-11-28T18:17:31.334Z,70.80
2017-11-28T18:18:04.416Z,70.60
2017-11-28T18:18:37.497Z,70.50
2017-11-28T18:19:10.566Z,70.60
2017-11-28T18:19:43.969Z,71.10
2017-11-28T18:20:17.694Z,71.20
2017-11-28T18:20:50.774Z,71.30
2017-11-28T18:21:24.853Z,70.50
2017-11-28T18:21:58.242Z,70.50
2017-11-28T18:22:31.330Z,70.50
2017-11-28T18:23:05.116Z,70.30
2017-11-28T18:23:38.519Z,70.30
2017-11-28T18:24:12.363Z,70.40
2017-11-28T18:24:45.781Z,70.40
2017-11-28T18:25:18.902Z,70.10
2017-11-28T18:25:52.186Z,70.10
2017-11-28T18:26:25.265Z,70.00
2017-11-28T18:26:58.684Z,70.00
2017-11-28T18:27:31.790Z,70.10
2017-11-28T18:28:05.963Z,70.00
2017-11-28T18:28:39.045Z,70.00
2017-11-28T18:29:12.234Z,70.00
2017-11-28T18:29:46.070Z,70.10
2017-11-28T18:30:19.895Z,70.10
2017-11-28T18:30:52.990Z,70.10
2017-11-28T18:31:26.827Z,70.10
2017-11-28T18:32:00.088Z,70.10
2017-11-28T18:32:33.152Z,70.20
2017-11-28T18:33:06.634Z,70.10
2017-11-28T18:33:40.226Z,70.00
2017-11-28T18:34:13.919Z,70.30
2017-11-28T18:34:48.437Z,70.40
2017-11-28T18:35:22.179Z,70.40
2017-11-28T18:35:56.083Z,70.20
2017-11-28T18:36:29.492Z,70.10
2017-11-28T18:37:03.427Z,70.70
2017-11-28T18:37:36.834Z,70.60
2017-11-28T18:38:09.988Z,70.70
2017-11-28T18:38:43.127Z,70.30
2017-11-28T18:39:16.983Z,70.40
2017-11-28T18:39:50.173Z,70.30
2017-11-28T18:40:23.250Z,70.40
2017-11-28T18:40:56.994Z,71.20
2017-11-28T18:41:30.463Z,70.60
2017-11-28T18:42:04.422Z,70.50
2017-11-28T18:42:38.155Z,70.60
2017-11-28T18:43:11.571Z,70.40
2017-11-28T18:43:45.129Z,70.60
2017-11-28T18:44:18.877Z,70.50
2017-11-28T18:44:52.201Z,70.50
2017-11-28T18:45:25.271Z,70.50
2017-11-28T18:45:58.433Z,70.40
2017-11-28T18:46:31.872Z,70.70
2017-11-28T18:47:05.010Z,70.70
2017-11-28T18:47:38.410Z,70.60
2017-11-28T18:48:11.502Z,70.50
2017-11-28T18:48:44.616Z,70.50
2017-11-28T18:49:18.446Z,70.80
2017-11-28T18:49:51.841Z,70.80
2017-11-28T18:50:24.742Z,70.80
2017-11-28T18:50:58.628Z,70.60
2017-11-28T18:51:31.736Z,70.50
2017-11-28T18:52:05.956Z,70.60
2017-11-28T18:52:39.230Z,70.40
2017-11-28T18:53:13.540Z,70.30
2017-11-28T18:53:46.637Z,70.30
2017-11-28T18:54:19.713Z,70.40
2017-11-28T18:54:52.784Z,70.50
2017-11-28T18:55:25.945Z,70.60
2017-11-28T18:55:59.059Z,70.50
2017-11-28T18:56:32.143Z,70.50
2017-11-28T18:57:05.550Z,70.50
2017-11-28T18:57:40.288Z,70.80
2017-11-28T18:58:14.127Z,70.70
2017-11-28T18:58:47.194Z,70.70
2017-11-28T18:59:20.271Z,70.80
2017-11-28T18:59:53.340Z,70.70
2017-11-28T19:00:27.159Z,70.50
2017-11-28T19:01:00.263Z,70.50
2017-11-28T19:01:34.429Z,71.40
2017-11-28T19:02:07.739Z,70.80
2017-11-28T19:02:40.947Z,70.70
2017-11-28T19:03:14.055Z,70.80
2017-11-28T19:03:47.159Z,70.90
2017-11-28T19:04:20.575Z,70.70
2017-11-28T19:04:54.430Z,71.00
2017-11-28T19:05:27.495Z,71.00
2017-11-28T19:06:00.583Z,71.00
2017-11-28T19:06:33.666Z,71.20
2017-11-28T19:07:07.076Z,71.20
2017-11-28T19:07:41.961Z,71.40
2017-11-28T19:08:15.045Z,71.40
2017-11-28T19:08:48.449Z,71.40
2017-11-28T19:09:22.617Z,71.40
2017-11-28T19:09:55.692Z,71.40
2017-11-28T19:10:29.110Z,71.80
2017-11-28T19:11:03.292Z,71.80
2017-11-28T19:11:36.388Z,71.80
2017-11-28T19:12:10.572Z,71.70
2017-11-28T19:12:43.692Z,71.80
2017-11-28T19:13:17.106Z,71.20
2017-11-28T19:13:50.207Z,71.90
2017-11-28T19:14:23.298Z,72.10
2017-11-28T19:14:57.150Z,72.30
2017-11-28T19:15:30.216Z,72.20
2017-11-28T19:16:03.327Z,72.30
2017-11-28T19:16:36.422Z,72.50
2017-11-28T19:17:10.290Z,72.60
2017-11-28T19:17:43.772Z,72.60
2017-11-28T19:18:17.510Z,72.30
2017-11-28T19:18:50.595Z,72.30
2017-11-28T19:19:23.670Z,72.40
2017-11-28T19:19:56.825Z,72.20
2017-11-28T19:20:30.782Z,72.20
2017-11-28T19:21:03.950Z,72.20
2017-11-28T19:21:37.020Z,72.20
2017-11-28T19:22:10.095Z,71.90
2017-11-28T19:22:43.224Z,71.80
2017-11-28T19:23:17.090Z,71.70
2017-11-28T19:23:50.174Z,71.70
2017-11-28T19:24:23.265Z,71.60
2017-11-28T19:24:57.478Z,71.70
2017-11-28T19:25:30.560Z,71.70
2017-11-28T19:26:03.967Z,71.70
2017-11-28T19:26:37.513Z,71.70
2017-11-28T19:27:11.373Z,71.80
2017-11-28T19:27:44.444Z,71.80
2017-11-28T19:28:17.839Z,71.90
2017-11-28T19:28:51.247Z,71.60
2017-11-28T19:29:24.325Z,71.50
2017-11-28T19:29:58.177Z,71.60
2017-11-28T19:30:31.265Z,71.60
2017-11-28T19:31:04.344Z,71.60
2017-11-28T19:31:37.419Z,71.60
2017-11-28T19:32:11.170Z,71.50
2017-11-28T19:32:44.263Z,71.60
2017-11-28T19:33:17.697Z,71.60
2017-11-28T19:33:51.529Z,71.50
2017-11-28T19:34:24.920Z,71.50
2017-11-28T19:34:57.999Z,71.50
2017-11-28T19:35:31.411Z,71.30
2017-11-28T19:36:04.813Z,71.00
2017-11-28T19:36:38.725Z,71.50
2017-11-28T19:37:11.792Z,71.50
2017-11-28T19:37:44.871Z,71.50
2017-11-28T19:38:18.017Z,71.50
2017-11-28T19:38:51.121Z,71.50
2017-11-28T19:39:24.982Z,71.20
2017-11-28T19:39:59.975Z,71.20
2017-11-28T19:40:33.064Z,71.10
2017-11-28T19:41:06.798Z,71.10
2017-11-28T19:41:40.661Z,71.40
2017-11-28T19:42:13.732Z,71.40
2017-11-28T19:42:46.808Z,71.40
2017-11-28T19:43:19.914Z,71.20
2017-11-28T19:43:53.741Z,71.30
2017-11-28T19:44:26.809Z,71.30
2017-11-28T19:44:59.886Z,71.40
2017-11-28T19:45:33.894Z,71.40
2017-11-28T19:46:06.971Z,71.30
2017-11-28T19:46:40.387Z,71.10
2017-11-28T19:47:13.803Z,71.10
2017-11-28T19:47:47.641Z,71.50
2017-11-28T19:48:21.057Z,71.50
2017-11-28T19:48:54.139Z,71.40
2017-11-28T19:49:27.547Z,71.10
2017-11-28T19:50:00.663Z,71.20
2017-11-28T19:50:34.340Z,71.20
2017-11-28T19:51:08.460Z,71.40
2017-11-28T19:51:42.311Z,71.50
2017-11-28T19:52:15.408Z,71.30
2017-11-28T19:52:48.503Z,71.40
2017-11-28T19:53:22.670Z,71.40
2017-11-28T19:53:56.234Z,71.30
2017-11-28T19:54:30.093Z,71.40
2017-11-28T19:55:03.843Z,71.30
2017-11-28T19:55:36.921Z,71.30
2017-11-28T19:56:10.067Z,71.40
2017-11-28T19:56:43.151Z,71.40
2017-11-28T19:57:17.461Z,71.10
2017-11-28T19:57:50.899Z,71.10
2017-11-28T19:58:24.962Z,71.10
2017-11-28T19:58:58.051Z,71.00
2017-11-28T19:59:31.463Z,70.80
2017-11-28T20:00:04.551Z,70.80
2017-11-28T20:00:37.642Z,70.80
2017-11-28T20:01:11.332Z,70.90
2017-11-28T20:01:45.128Z,70.80
2017-11-28T20:02:18.782Z,70.90
2017-11-28T20:02:52.551Z,70.90
2017-11-28T20:03:25.801Z,70.90
2017-11-28T20:03:59.680Z,70.80
2017-11-28T20:04:33.902Z,70.80
2017-11-28T20:05:06.995Z,70.80
2017-11-28T20:05:40.419Z,70.70
2017-11-28T20:06:14.166Z,70.50
2017-11-28T20:06:47.567Z,70.80
2017-11-28T20:07:21.018Z,70.80
2017-11-28T20:07:54.757Z,70.80
2017-11-28T20:08:28.139Z,70.80
2017-11-28T20:09:01.531Z,70.70
2017-11-28T20:09:34.926Z,70.50
2017-11-28T20:10:08.661Z,70.60
2017-11-28T20:10:42.069Z,70.70
2017-11-28T20:11:15.469Z,70.80
2017-11-28T20:11:48.871Z,70.70
2017-11-28T20:12:22.270Z,70.50
2017-11-28T20:12:56.445Z,70.40
2017-11-28T20:13:30.137Z,70.40
2017-11-28T20:14:04.057Z,70.70
2017-11-28T20:14:38.238Z,70.40
2017-11-28T20:15:12.633Z,71.20
2017-11-28T20:15:46.039Z,70.50
2017-11-28T20:16:20.219Z,70.50
2017-11-28T20:16:54.083Z,70.70
2017-11-28T20:17:27.725Z,70.60
2017-11-28T20:18:01.644Z,70.50
2017-11-28T20:18:34.578Z,70.40
2017-11-28T20:19:07.793Z,70.50
2017-11-28T20:19:40.661Z,70.40
2017-11-28T20:20:13.892Z,70.60
2017-11-28T20:20:48.642Z,70.50
2017-11-28T20:21:21.878Z,70.50
2017-11-28T20:21:55.105Z,70.50
2017-11-28T20:22:28.943Z,70.50
2017-11-28T20:23:02.015Z,70.50
2017-11-28T20:23:35.616Z,70.50
2017-11-28T20:24:08.728Z,70.40
2017-11-28T20:24:42.118Z,70.60
2017-11-28T20:25:15.522Z,70.50
2017-11-28T20:25:48.577Z,70.60
2017-11-28T20:26:21.781Z,70.70
2017-11-28T20:26:54.858Z,70.80
2017-11-28T20:27:28.277Z,71.10
2017-11-28T20:28:01.342Z,70.90
2017-11-28T20:28:35.107Z,70.90
2017-11-28T20:29:08.376Z,70.60
2017-11-28T20:29:41.301Z,70.70
2017-11-28T20:30:14.762Z,70.70
2017-11-28T20:30:47.866Z,70.70
2017-11-28T20:31:20.938Z,70.60
2017-11-28T20:31:54.038Z,70.30
2017-11-28T20:32:27.134Z,70.30
2017-11-28T20:33:00.245Z,70.30
2017-11-28T20:33:33.334Z,70.50
2017-11-28T20:34:06.398Z,70.80
2017-11-28T20:34:39.511Z,70.70
2017-11-28T20:35:13.697Z,70.80
2017-11-28T20:35:46.776Z,70.80
2017-11-28T20:36:19.858Z,70.70
2017-11-28T20:36:53.719Z,70.80
2017-11-28T20:37:26.788Z,70.70
2017-11-28T20:38:00.729Z,70.50
2017-11-28T20:38:34.563Z,70.60
2017-11-28T20:39:07.637Z,70.60
2017-11-28T20:39:41.351Z,70.70
2017-11-28T20:40:14.429Z,70.80
2017-11-28T20:40:47.519Z,70.60
2017-11-28T20:41:20.593Z,70.30
2017-11-28T20:41:53.697Z,70.30
2017-11-28T20:42:27.359Z,70.40
2017-11-28T20:43:00.767Z,70.40
2017-11-28T20:43:34.951Z,70.20
2017-11-28T20:44:08.050Z,70.20
2017-11-28T20:44:41.940Z,70.30
2017-11-28T20:45:15.816Z,70.40
2017-11-28T20:45:49.230Z,70.40
2017-11-28T20:46:22.302Z,70.60
2017-11-28T20:46:55.404Z,70.50
2017-11-28T20:47:28.485Z,70.80
2017-11-28T20:48:01.909Z,70.70
2017-11-28T20:48:35.341Z,70.60
2017-11-28T20:49:14.000Z,70.80
2017-11-28T20:49:47.094Z,70.40
2017-11-28T20:50:21.045Z,70.20
2017-11-28T20:50:54.120Z,70.20
2017-11-28T20:51:28.306Z,70.10
2017-11-28T20:52:01.193Z,70.10
2017-11-28T20:52:34.261Z,70.10
2017-11-28T20:53:07.325Z,70.30
2017-11-28T20:53:40.411Z,70.20
2017-11-28T20:54:13.310Z,70.20
2017-11-28T20:54:46.421Z,70.20
2017-11-28T20:55:19.612Z,70.30
2017-11-28T20:55:52.716Z,70.40
2017-11-28T20:56:26.701Z,70.50
2017-11-28T20:56:59.786Z,71.20
2017-11-28T20:57:32.873Z,70.40
2017-11-28T20:58:05.999Z,70.30
2017-11-28T20:58:39.431Z,70.30
2017-11-28T20:59:12.561Z,70.40
2017-11-28T20:59:46.731Z,70.10
2017-11-28T21:00:20.118Z,70.10
2017-11-28T21:00:53.196Z,70.20
2017-11-28T21:01:26.282Z,70.20
2017-11-28T21:02:00.138Z,70.70
2017-11-28T21:02:33.254Z,70.70
2017-11-28T21:03:07.420Z,70.60
2017-11-28T21:03:40.825Z,70.60
2017-11-28T21:04:14.674Z,70.20
2017-11-28T21:04:47.790Z,70.20
2017-11-28T21:05:21.850Z,69.90
2017-11-28T21:05:55.254Z,69.60
2017-11-28T21:06:28.347Z,69.60
2017-11-28T21:07:01.420Z,69.60
2017-11-28T21:07:34.842Z,69.70
2017-11-28T21:08:07.919Z,69.70
2017-11-28T21:08:43.454Z,69.80
2017-11-28T21:09:16.965Z,69.70
2017-11-28T21:09:51.195Z,69.40
2017-11-28T21:10:24.283Z,69.30
2017-11-28T21:10:57.684Z,69.30
2017-11-28T21:11:31.866Z,69.20
2017-11-28T21:12:05.269Z,69.20
2017-11-28T21:12:38.376Z,69.20
2017-11-28T21:13:12.406Z,69.10
2017-11-28T21:13:45.884Z,69.30
2017-11-28T21:14:18.953Z,69.50
2017-11-28T21:14:52.398Z,69.40
2017-11-28T21:15:25.477Z,69.40
2017-11-28T21:15:58.878Z,69.40
2017-11-28T21:16:32.562Z,69.10
2017-11-28T21:17:05.959Z,69.20
2017-11-28T21:17:39.366Z,69.30
2017-11-28T21:18:12.454Z,69.30
2017-11-28T21:18:45.514Z,69.20
2017-11-28T21:19:18.911Z,69.20
2017-11-28T21:19:51.984Z,69.40
2017-11-28T21:20:25.341Z,69.40
2017-11-28T21:21:03.860Z,69.70
2017-11-28T21:21:37.277Z,69.60
2017-11-28T21:22:11.114Z,69.30
2017-11-28T21:22:44.182Z,69.20
2017-11-28T21:23:17.581Z,69.50
2017-11-28T21:23:50.992Z,69.80
2017-11-28T21:24:24.402Z,69.50
2017-11-28T21:24:58.243Z,69.20
2017-11-28T21:25:31.947Z,69.20
2017-11-28T21:26:05.346Z,69.50
2017-11-28T21:26:38.394Z,69.60
2017-11-28T21:27:11.472Z,69.40
2017-11-28T21:27:44.566Z,69.50
2017-11-28T21:28:17.647Z,69.70
2017-11-28T21:28:50.773Z,69.70
2017-11-28T21:29:23.844Z,69.60
2017-11-28T21:29:58.216Z,69.60
2017-11-28T21:30:32.839Z,69.40
2017-11-28T21:31:06.684Z,69.40
2017-11-28T21:31:40.094Z,69.40
2017-11-28T21:32:13.171Z,69.30
2017-11-28T21:32:46.623Z,69.00
2017-11-28T21:33:19.736Z,69.20
2017-11-28T21:33:54.237Z,69.10
2017-11-28T21:34:27.317Z,69.10
2017-11-28T21:35:01.503Z,69.20
2017-11-28T21:35:34.988Z,69.20
2017-11-28T21:36:08.059Z,69.00
2017-11-28T21:36:41.128Z,68.90
2017-11-28T21:37:14.207Z,68.80
2017-11-28T21:37:47.318Z,68.70
2017-11-28T21:38:21.482Z,68.60
2017-11-28T21:38:54.552Z,68.50
2017-11-28T21:39:27.616Z,68.30
2017-11-28T21:40:01.046Z,68.20
2017-11-28T21:40:35.280Z,68.60
2017-11-28T21:41:08.354Z,68.60
2017-11-28T21:41:41.787Z,68.40
2017-11-28T21:42:15.545Z,68.30
2017-11-28T21:42:48.998Z,68.20
2017-11-28T21:43:22.426Z,68.30
2017-11-28T21:43:55.531Z,68.60
2017-11-28T21:44:28.969Z,68.80
2017-11-28T21:45:02.397Z,68.60
2017-11-28T21:45:35.879Z,67.80
2017-11-28T21:46:09.387Z,68.90
2017-11-28T21:46:43.554Z,68.40
2017-11-28T21:47:16.611Z,68.40
2017-11-28T21:47:49.704Z,68.10
2017-11-28T21:48:23.100Z,67.90
2017-11-28T21:48:56.182Z,68.00
2017-11-28T21:49:29.266Z,68.10
2017-11-28T21:50:03.099Z,67.60
2017-11-28T21:50:36.276Z,67.90
2017-11-28T21:51:09.732Z,68.00
2017-11-28T21:51:43.563Z,67.90
2017-11-28T21:52:16.654Z,67.90
2017-11-28T21:52:51.052Z,67.90
2017-11-28T21:53:24.475Z,67.90
2017-11-28T21:53:57.551Z,68.00
2017-11-28T21:54:30.987Z,67.80
2017-11-28T21:55:04.131Z,67.50
2017-11-28T21:55:38.300Z,67.20
2017-11-28T21:56:11.848Z,67.10
2017-11-28T21:56:45.031Z,67.10
2017-11-28T21:57:18.090Z,67.40
2017-11-28T21:57:52.176Z,67.40
2017-11-28T21:58:26.326Z,67.30
2017-11-28T21:58:59.739Z,67.30
2017-11-28T21:59:33.140Z,67.30
2017-11-28T22:00:06.253Z,67.70
2017-11-28T22:00:39.713Z,67.40
2017-11-28T22:01:13.459Z,67.40
2017-11-28T22:01:47.175Z,67.50
2017-11-28T22:02:21.671Z,67.80
2017-11-28T22:02:55.571Z,67.80
2017-11-28T22:03:30.078Z,67.60
2017-11-28T22:04:04.320Z,67.50
2017-11-28T22:04:38.055Z,67.50
2017-11-28T22:05:11.153Z,67.60
2017-11-28T22:05:45.692Z,67.40
2017-11-28T22:06:19.122Z,67.40
2017-11-28T22:06:52.227Z,67.40
2017-11-28T22:07:26.080Z,67.30
2017-11-28T22:07:59.522Z,67.30
2017-11-28T22:08:32.595Z,67.20
2017-11-28T22:09:05.994Z,67.30
2017-11-28T22:09:39.125Z,67.10
2017-11-28T22:10:12.187Z,67.10
2017-11-28T22:10:45.640Z,67.20
2017-11-28T22:11:19.262Z,67.30
2017-11-28T22:11:54.221Z,67.20
2017-11-28T22:12:27.619Z,67.20
2017-11-28T22:13:01.047Z,67.30
2017-11-28T22:13:34.456Z,67.40
2017-11-28T22:14:08.638Z,67.00
2017-11-28T22:14:42.071Z,67.00
2017-11-28T22:15:15.143Z,66.90
2017-11-28T22:15:48.603Z,67.00
2017-11-28T22:16:22.447Z,67.00
2017-11-28T22:16:55.534Z,67.00
2017-11-28T22:17:29.265Z,67.10
2017-11-28T22:18:02.671Z,66.90
2017-11-28T22:18:35.762Z,66.80
2017-11-28T22:19:08.899Z,67.00
2017-11-28T22:19:43.080Z,67.00
2017-11-28T22:20:16.161Z,67.00
2017-11-28T22:20:50.660Z,67.40
2017-11-28T22:21:24.071Z,67.10
2017-11-28T22:21:58.256Z,67.10
2017-11-28T22:22:33.525Z,67.00
2017-11-28T22:23:06.614Z,67.00
2017-11-28T22:23:39.702Z,66.90
2017-11-28T22:24:12.768Z,67.00
2017-11-28T22:24:45.870Z,66.90
2017-11-28T22:25:19.129Z,66.80
2017-11-28T22:25:52.935Z,67.00
2017-11-28T22:26:26.889Z,67.10
2017-11-28T22:26:59.955Z,67.00
2017-11-28T22:27:33.039Z,67.00
2017-11-28T22:28:06.107Z,67.00
2017-11-28T22:28:39.173Z,67.00
2017-11-28T22:29:13.336Z,67.50
2017-11-28T22:29:47.077Z,67.40
2017-11-28T22:30:20.159Z,67.60
2017-11-28T22:30:53.922Z,67.50
2017-11-28T22:31:27.767Z,67.60
2017-11-28T22:32:01.199Z,67.60
2017-11-28T22:32:35.040Z,67.60
2017-11-28T22:33:08.122Z,67.50
2017-11-28T22:33:41.529Z,67.80
2017-11-28T22:34:14.941Z,68.00
2017-11-28T22:34:48.770Z,68.00
2017-11-28T22:35:21.846Z,67.90
2017-11-28T22:35:55.242Z,67.90
2017-11-28T22:36:28.314Z,68.00
2017-11-28T22:37:01.397Z,68.50
2017-11-28T22:37:34.493Z,68.60
2017-11-28T22:38:07.802Z,69.00
2017-11-28T22:38:41.980Z,69.00
2017-11-28T22:39:15.822Z,69.10
2017-11-28T22:39:48.933Z,69.10
2017-11-28T22:40:22.354Z,69.30
2017-11-28T22:40:56.814Z,69.40
2017-11-28T22:41:30.225Z,69.30
2017-11-28T22:42:03.325Z,69.20
2017-11-28T22:42:37.178Z,69.00
2017-11-28T22:43:10.613Z,69.00
2017-11-28T22:43:43.688Z,69.10
2017-11-28T22:44:17.097Z,69.00
2017-11-28T22:44:50.170Z,69.00
2017-11-28T22:45:23.602Z,69.10
2017-11-28T22:45:57.857Z,69.20
2017-11-28T22:46:31.584Z,69.10
2017-11-28T22:47:05.426Z,69.80
2017-11-28T22:47:38.830Z,69.30
2017-11-28T22:48:11.897Z,69.30
2017-11-28T22:48:44.971Z,69.10
2017-11-28T22:49:18.365Z,69.10
2017-11-28T22:49:51.441Z,69.10
2017-11-28T22:50:24.940Z,69.20
2017-11-28T22:50:58.666Z,69.30
2017-11-28T22:51:32.561Z,69.50
2017-11-28T22:52:07.069Z,69.70
2017-11-28T22:52:41.583Z,69.90
2017-11-28T22:53:15.481Z,69.60
2017-11-28T22:53:49.650Z,69.70
2017-11-28T22:54:22.742Z,69.70
2017-11-28T22:54:55.806Z,69.80
2017-11-28T22:55:29.200Z,69.80
2017-11-28T22:56:02.300Z,69.80
2017-11-28T22:56:35.383Z,70.10
2017-11-28T22:57:08.461Z,69.70
2017-11-28T22:57:41.890Z,69.50
2017-11-28T22:58:14.802Z,69.60
2017-11-28T22:58:47.697Z,69.80
2017-11-28T22:59:20.756Z,70.10
2017-11-28T22:59:55.116Z,70.10
2017-11-28T23:00:28.662Z,70.10
2017-11-28T23:01:02.554Z,70.20
2017-11-28T23:01:35.710Z,70.10
2017-11-28T23:02:09.546Z,70.30
2017-11-28T23:02:42.954Z,70.30
2017-11-28T23:03:16.721Z,70.10
2017-11-28T23:03:50.147Z,70.00
2017-11-28T23:04:23.852Z,70.20
2017-11-28T23:04:58.021Z,70.20
2017-11-28T23:05:31.098Z,70.20
2017-11-28T23:06:04.498Z,70.10
2017-11-28T23:06:38.677Z,70.20
2017-11-28T23:07:12.414Z,70.20
2017-11-28T23:07:45.489Z,70.30
2017-11-28T23:08:19.046Z,70.40
2017-11-28T23:08:52.562Z,70.30
2017-11-28T23:09:25.767Z,70.90
2017-11-28T23:09:59.217Z,70.10
2017-11-28T23:10:32.289Z,69.90
2017-11-28T23:11:07.087Z,70.00
2017-11-28T23:11:40.742Z,70.00
2017-11-28T23:12:13.816Z,70.00
2017-11-28T23:12:47.661Z,70.10
2017-11-28T23:13:22.180Z,70.20
2017-11-28T23:14:01.026Z,70.20
2017-11-28T23:14:34.205Z,70.00
2017-11-28T23:15:07.293Z,70.10
2017-11-28T23:15:40.385Z,70.40
2017-11-28T23:16:13.471Z,70.30
2017-11-28T23:16:46.550Z,70.00
2017-11-28T23:17:19.704Z,70.10
2017-11-28T23:17:53.125Z,69.70
2017-11-28T23:18:27.635Z,70.20
2017-11-28T23:19:02.198Z,70.40
2017-11-28T23:19:35.280Z,70.30
2017-11-28T23:20:08.351Z,70.30
2017-11-28T23:20:41.419Z,70.30
2017-11-28T23:21:14.819Z,70.30
2017-11-28T23:21:47.935Z,70.30
2017-11-28T23:22:21.344Z,70.50
2017-11-28T23:22:54.411Z,70.30
2017-11-28T23:23:27.814Z,70.30
2017-11-28T23:24:01.270Z,70.20
2017-11-28T23:24:34.365Z,70.10
2017-11-28T23:25:07.464Z,70.20
2017-11-28T23:25:40.535Z,70.30
2017-11-28T23:26:13.643Z,70.20
2017-11-28T23:26:47.549Z,70.40
2017-11-28T23:27:21.384Z,70.50
2017-11-28T23:27:54.446Z,70.50
2017-11-28T23:28:27.854Z,70.70
2017-11-28T23:29:01.271Z,70.70
2017-11-28T23:29:35.107Z,71.00
2017-11-28T23:30:08.233Z,70.80
2017-11-28T23:30:41.314Z,71.00
2017-11-28T23:31:15.163Z,71.60
2017-11-28T23:31:48.275Z,70.90
2017-11-28T23:32:21.353Z,71.20
2017-11-28T23:32:54.766Z,71.20
2017-11-28T23:33:28.938Z,71.40
2017-11-28T23:34:02.041Z,71.30
2017-11-28T23:34:35.885Z,71.30
2017-11-28T23:35:09.298Z,71.20
2017-11-28T23:35:43.821Z,70.90
2017-11-28T23:36:17.663Z,71.00
2017-11-28T23:36:51.054Z,71.00
2017-11-28T23:37:24.114Z,70.80
2017-11-28T23:37:57.168Z,70.70
2017-11-28T23:38:30.235Z,70.60
2017-11-28T23:39:03.186Z,70.60
2017-11-28T23:39:36.248Z,70.70
2017-11-28T23:40:09.131Z,70.80
2017-11-28T23:40:43.301Z,70.60
2017-11-28T23:41:16.374Z,70.60
2017-11-28T23:41:49.460Z,70.50
2017-11-28T23:42:22.884Z,70.50
2017-11-28T23:42:57.395Z,70.80
2017-11-28T23:43:31.881Z,70.70
2017-11-28T23:44:04.954Z,70.70
2017-11-28T23:44:38.356Z,70.50
2017-11-28T23:45:12.188Z,70.60
2017-11-28T23:45:45.241Z,70.60
2017-11-28T23:46:18.316Z,70.60
2017-11-28T23:46:52.140Z,70.70
2017-11-28T23:47:25.548Z,70.70
2017-11-28T23:47:58.943Z,70.60
2017-11-28T23:48:32.154Z,70.30
2017-11-28T23:49:05.252Z,70.50
2017-11-28T23:49:38.665Z,70.00
2017-11-28T23:50:11.722Z,70.10
2017-11-28T23:50:44.796Z,70.10
2017-11-28T23:51:17.872Z,70.00
2017-11-28T23:51:50.765Z,70.10
2017-11-28T23:52:23.962Z,70.00
2017-11-28T23:52:57.108Z,69.90
2017-11-28T23:53:30.850Z,70.00
2017-11-28T23:54:04.668Z,69.80
2017-11-28T23:54:37.722Z,69.80
2017-11-28T23:55:10.937Z,69.80
2017-11-28T23:55:43.997Z,70.00
2017-11-28T23:56:17.393Z,69.90
2017-11-28T23:56:50.802Z,69.80
2017-11-28T23:57:23.865Z,69.70
2017-11-28T23:57:57.454Z,69.90
2017-11-28T23:58:30.847Z,69.90
2017-11-28T23:59:03.917Z,69.90
2017-11-28T23:59:37.651Z,69.90
